createdAt,value
2018-09-11T00:01:46.381Z,96446.81
2018-09-11T00:04:15.434Z,96455.60
2018-09-11T00:06:44.600Z,96455.60
2018-09-11T00:09:14.153Z,96461.77
2018-09-11T00:11:44.182Z,96463.03
2018-09-11T00:14:13.297Z,96466.53
2018-09-11T00:16:42.390Z,96461.20
2018-09-11T00:19:11.557Z,96466.70
2018-09-11T00:21:40.705Z,96464.05
2018-09-11T00:24:09.796Z,96465.43
2018-09-11T00:26:38.996Z,96467.44
2018-09-11T00:29:08.096Z,96464.80
2018-09-11T00:31:37.296Z,96465.92
2018-09-11T00:34:06.476Z,96466.70
2018-09-11T00:36:35.588Z,96457.78
2018-09-11T00:39:05.712Z,96465.13
2018-09-11T00:41:34.853Z,96453.44
2018-09-11T00:44:03.988Z,96455.13
2018-09-11T00:46:33.336Z,96452.09
2018-09-11T00:49:02.502Z,96450.50
2018-09-11T00:51:31.696Z,96451.50
2018-09-11T00:54:00.874Z,96452.70
2018-09-11T00:56:30.086Z,96450.34
2018-09-11T00:58:59.290Z,96443.44
2018-09-11T01:01:28.467Z,96447.84
2018-09-11T01:03:57.633Z,96447.09
2018-09-11T01:06:26.781Z,96441.83
2018-09-11T01:08:56.010Z,96437.92
2018-09-11T01:11:25.168Z,96444.97
2018-09-11T01:13:54.327Z,96443.70
2018-09-11T01:16:23.411Z,96448.11
2018-09-11T01:18:52.559Z,96448.59
2018-09-11T01:21:21.673Z,96445.91
2018-09-11T01:23:50.789Z,96446.17
2018-09-11T01:26:19.949Z,96446.28
2018-09-11T01:28:49.795Z,96452.44
2018-09-11T01:31:18.974Z,96447.41
2018-09-11T01:33:48.037Z,96448.41
2018-09-11T01:36:17.160Z,96445.65
2018-09-11T01:38:46.248Z,96453.55
2018-09-11T01:41:15.353Z,96453.14
2018-09-11T01:43:44.448Z,96458.14
2018-09-11T01:46:13.646Z,96458.28
2018-09-11T01:48:42.825Z,96462.80
2018-09-11T01:51:11.932Z,96459.89
2018-09-11T01:53:41.021Z,96455.56
2018-09-11T01:56:10.197Z,96465.03
2018-09-11T01:58:39.409Z,96458.27
2018-09-11T02:01:08.497Z,96462.80
2018-09-11T02:03:37.625Z,96466.15
2018-09-11T02:06:06.717Z,96468.30
2018-09-11T02:08:35.824Z,96467.72
2018-09-11T02:11:05.782Z,96467.72
2018-09-11T02:13:34.907Z,96471.36
2018-09-11T02:16:04.177Z,96480.30
2018-09-11T02:18:33.313Z,96473.11
2018-09-11T02:21:02.531Z,96473.99
2018-09-11T02:23:31.645Z,96466.14
2018-09-11T02:26:00.729Z,96467.33
2018-09-11T02:28:29.822Z,96465.19
2018-09-11T02:30:58.917Z,96472.19
2018-09-11T02:33:28.003Z,96472.72
2018-09-11T02:35:57.310Z,96465.16
2018-09-11T02:38:26.568Z,96476.95
2018-09-11T02:40:55.644Z,96474.08
2018-09-11T02:43:24.778Z,96474.70
2018-09-11T02:45:53.957Z,96479.33
2018-09-11T02:48:23.031Z,96474.72
2018-09-11T02:50:52.156Z,96472.36
2018-09-11T02:53:21.353Z,96478.03
2018-09-11T02:55:50.483Z,96476.39
2018-09-11T02:58:19.568Z,96476.83
2018-09-11T03:00:48.745Z,96484.92
2018-09-11T03:03:17.930Z,96485.91
2018-09-11T03:05:47.166Z,96482.77
2018-09-11T03:08:16.333Z,96471.00
2018-09-11T03:10:45.415Z,96474.38
2018-09-11T03:13:14.533Z,96470.85
2018-09-11T03:15:43.685Z,96465.77
2018-09-11T03:18:12.789Z,96466.09
2018-09-11T03:20:41.905Z,96462.67
2018-09-11T03:23:10.972Z,96476.99
2018-09-11T03:25:40.096Z,96474.58
2018-09-11T03:28:09.213Z,96468.17
2018-09-11T03:30:38.372Z,96469.61
2018-09-11T03:33:07.500Z,96474.72
2018-09-11T03:35:36.730Z,96474.53
2018-09-11T03:38:06.182Z,96475.64
2018-09-11T03:40:35.421Z,96480.75
2018-09-11T03:43:04.516Z,96478.45
2018-09-11T03:45:33.621Z,96481.63
2018-09-11T03:48:02.754Z,96481.02
2018-09-11T03:50:31.948Z,96483.67
2018-09-11T03:53:01.074Z,96484.06
2018-09-11T03:55:30.272Z,96482.80
2018-09-11T03:57:59.588Z,96485.70
2018-09-11T04:00:28.758Z,96486.10
2018-09-11T04:02:57.944Z,96485.16
2018-09-11T04:05:27.221Z,96489.52
2018-09-11T04:07:56.352Z,96487.24
2018-09-11T04:10:25.604Z,96487.45
2018-09-11T04:12:54.693Z,96488.27
2018-09-11T04:15:23.780Z,96492.80
2018-09-11T04:17:52.955Z,96490.13
2018-09-11T04:20:22.077Z,96491.05
2018-09-11T04:22:51.149Z,96494.86
2018-09-11T04:25:20.277Z,96500.91
2018-09-11T04:27:49.535Z,96498.36
2018-09-11T04:30:18.716Z,96501.64
2018-09-11T04:32:47.897Z,96510.41
2018-09-11T04:35:17.069Z,96507.79
2018-09-11T04:37:46.165Z,96513.20
2018-09-11T04:40:15.365Z,96510.08
2018-09-11T04:42:44.501Z,96508.08
2018-09-11T04:45:13.697Z,96517.52
2018-09-11T04:47:42.815Z,96516.36
2018-09-11T04:50:12.217Z,96521.89
2018-09-11T04:52:41.420Z,96528.95
2018-09-11T04:55:10.524Z,96527.69
2018-09-11T04:57:39.668Z,96532.33
2018-09-11T05:00:08.836Z,96536.06
2018-09-11T05:02:38.008Z,96539.48
2018-09-11T05:05:07.232Z,96545.42
2018-09-11T05:07:36.501Z,96551.58
2018-09-11T05:10:05.876Z,96555.05
2018-09-11T05:12:35.076Z,96555.39
2018-09-11T05:15:04.368Z,96558.14
2018-09-11T05:17:33.828Z,96564.52
2018-09-11T05:20:02.966Z,96562.09
2018-09-11T05:22:32.162Z,96565.17
2018-09-11T05:25:01.273Z,96567.33
2018-09-11T05:27:30.477Z,96572.33
2018-09-11T05:29:59.746Z,96574.52
2018-09-11T05:32:28.974Z,96576.78
2018-09-11T05:34:58.064Z,96579.75
2018-09-11T05:37:27.230Z,96586.91
2018-09-11T05:39:56.466Z,96584.16
2018-09-11T05:42:25.909Z,96578.70
2018-09-11T05:44:55.164Z,96590.76
2018-09-11T05:47:24.363Z,96588.62
2018-09-11T05:49:53.559Z,96582.50
2018-09-11T05:52:22.723Z,96580.70
2018-09-11T05:54:51.873Z,96581.73
2018-09-11T05:57:21.056Z,96585.11
2018-09-11T05:59:50.868Z,96585.72
2018-09-11T06:02:19.967Z,96583.12
2018-09-11T06:04:49.115Z,96590.27
2018-09-11T06:07:18.379Z,96577.75
2018-09-11T06:09:47.545Z,96580.02
2018-09-11T06:12:16.726Z,96584.30
2018-09-11T06:14:45.916Z,96592.16
2018-09-11T06:17:15.242Z,96589.20
2018-09-11T06:19:44.456Z,96587.69
2018-09-11T06:22:13.537Z,96593.06
2018-09-11T06:24:42.785Z,96587.84
2018-09-11T06:27:11.924Z,96586.87
2018-09-11T06:29:41.204Z,96586.70
2018-09-11T06:32:10.318Z,96591.45
2018-09-11T06:34:39.419Z,96589.03
2018-09-11T06:37:08.518Z,96591.05
2018-09-11T06:39:37.706Z,96593.02
2018-09-11T06:42:06.940Z,96600.13
2018-09-11T06:44:36.117Z,96599.86
2018-09-11T06:47:05.211Z,96599.79
2018-09-11T06:49:34.300Z,96607.52
2018-09-11T06:52:03.569Z,96607.86
2018-09-11T06:54:32.710Z,96605.47
2018-09-11T06:57:01.887Z,96605.59
2018-09-11T06:59:30.975Z,96607.33
2018-09-11T07:02:00.215Z,96608.08
2018-09-11T07:04:29.275Z,96611.33
2018-09-11T07:06:58.470Z,96613.48
2018-09-11T07:09:27.571Z,96616.72
2018-09-11T07:11:56.681Z,96618.59
2018-09-11T07:14:25.841Z,96616.09
2018-09-11T07:16:54.945Z,96616.84
2018-09-11T07:19:24.555Z,96622.19
2018-09-11T07:21:53.693Z,96625.58
2018-09-11T07:24:22.925Z,96626.47
2018-09-11T07:26:52.064Z,96631.04
2018-09-11T07:29:21.175Z,96632.12
2018-09-11T07:31:50.267Z,96633.23
2018-09-11T07:34:19.453Z,96631.35
2018-09-11T07:36:48.643Z,96633.34
2018-09-11T07:39:17.817Z,96635.50
2018-09-11T07:41:46.901Z,96632.26
2018-09-11T07:44:16.181Z,96637.64
2018-09-11T07:46:45.409Z,96641.81
2018-09-11T07:49:14.485Z,96637.20
2018-09-11T07:51:43.579Z,96649.41
2018-09-11T07:54:12.696Z,96641.98
2018-09-11T07:56:41.785Z,96640.69
2018-09-11T07:59:10.915Z,96649.22
2018-09-11T08:01:40.004Z,96655.23
2018-09-11T08:04:09.215Z,96652.24
2018-09-11T08:06:38.392Z,96662.11
2018-09-11T08:09:10.737Z,96658.66
2018-09-11T08:11:39.889Z,96658.74
2018-09-11T08:14:09.513Z,96658.09
2018-09-11T08:16:38.748Z,96659.96
2018-09-11T08:19:07.856Z,96657.09
2018-09-11T08:21:37.074Z,96662.64
2018-09-11T08:24:06.505Z,96660.34
2018-09-11T08:26:35.760Z,96665.55
2018-09-11T08:29:04.886Z,96663.20
2018-09-11T08:31:34.061Z,96664.28
2018-09-11T08:34:03.310Z,96662.09
2018-09-11T08:36:32.458Z,96665.42
2018-09-11T08:39:01.835Z,96660.13
2018-09-11T08:41:30.892Z,96651.58
2018-09-11T08:44:00.059Z,96655.48
2018-09-11T08:46:29.194Z,96657.99
2018-09-11T08:48:58.335Z,96653.61
2018-09-11T08:51:27.421Z,96653.39
2018-09-11T08:53:56.612Z,96651.31
2018-09-11T08:56:25.820Z,96650.65
2018-09-11T08:58:54.924Z,96647.84
2018-09-11T09:01:24.021Z,96645.57
2018-09-11T09:03:53.144Z,96642.64
2018-09-11T09:06:22.254Z,96644.94
2018-09-11T09:08:51.424Z,96641.75
2018-09-11T09:11:20.548Z,96643.55
2018-09-11T09:13:49.664Z,96644.53
2018-09-11T09:16:19.188Z,96639.34
2018-09-11T09:18:48.514Z,96641.23
2018-09-11T09:21:17.721Z,96636.87
2018-09-11T09:23:46.853Z,96634.09
2018-09-11T09:26:16.000Z,96624.45
2018-09-11T09:28:45.116Z,96632.47
2018-09-11T09:31:14.299Z,96626.61
2018-09-11T09:33:43.590Z,96625.47
2018-09-11T09:36:12.697Z,96623.76
2018-09-11T09:38:41.853Z,96623.05
2018-09-11T09:41:10.953Z,96623.38
2018-09-11T09:43:40.085Z,96625.37
2018-09-11T09:46:09.313Z,96623.91
2018-09-11T09:48:38.497Z,96624.09
2018-09-11T09:51:07.670Z,96618.46
2018-09-11T09:53:36.777Z,96614.47
2018-09-11T09:56:05.962Z,96612.50
2018-09-11T09:58:35.168Z,96610.89
2018-09-11T10:01:09.661Z,96606.15
2018-09-11T10:03:38.776Z,96609.48
2018-09-11T10:06:08.040Z,96612.56
2018-09-11T10:08:37.264Z,96615.31
2018-09-11T10:11:06.605Z,96612.91
2018-09-11T10:13:35.806Z,96609.25
2018-09-11T10:16:04.916Z,96600.69
2018-09-11T10:18:34.051Z,96601.80
2018-09-11T10:21:03.184Z,96600.78
2018-09-11T10:23:32.293Z,96597.77
2018-09-11T10:26:01.560Z,96596.50
2018-09-11T10:28:30.647Z,96593.28
2018-09-11T10:30:59.768Z,96596.05
2018-09-11T10:33:28.918Z,96593.16
2018-09-11T10:35:58.045Z,96590.98
2018-09-11T10:38:27.312Z,96591.75
2018-09-11T10:40:56.372Z,96582.83
2018-09-11T10:43:25.512Z,96580.98
2018-09-11T10:45:54.646Z,96580.50
2018-09-11T10:48:23.802Z,96581.69
2018-09-11T10:50:52.914Z,96580.08
2018-09-11T10:53:22.194Z,96581.98
2018-09-11T10:55:51.390Z,96570.97
2018-09-11T10:58:20.538Z,96565.87
2018-09-11T11:00:49.974Z,96569.11
2018-09-11T11:03:19.064Z,96567.25
2018-09-11T11:05:48.220Z,96560.84
2018-09-11T11:08:17.376Z,96560.28
2018-09-11T11:10:46.462Z,96561.14
2018-09-11T11:13:15.694Z,96552.92
2018-09-11T11:15:44.898Z,96557.53
2018-09-11T11:18:13.999Z,96557.03
2018-09-11T11:20:43.098Z,96560.09
2018-09-11T11:23:12.296Z,96555.42
2018-09-11T11:25:41.556Z,96541.95
2018-09-11T11:28:10.685Z,96545.89
2018-09-11T11:30:39.781Z,96547.92
2018-09-11T11:33:08.947Z,96549.26
2018-09-11T11:35:38.062Z,96543.77
2018-09-11T11:38:07.163Z,96539.48
2018-09-11T11:40:36.350Z,96533.02
2018-09-11T11:43:05.509Z,96535.72
2018-09-11T11:45:34.669Z,96530.23
2018-09-11T11:48:03.915Z,96535.80
2018-09-11T11:50:33.049Z,96534.14
2018-09-11T11:53:02.274Z,96534.63
2018-09-11T11:55:31.515Z,96533.92
2018-09-11T11:58:00.553Z,96532.82
2018-09-11T12:00:29.759Z,96538.55
2018-09-11T12:02:58.919Z,96532.64
2018-09-11T12:05:28.037Z,96541.23
2018-09-11T12:07:57.219Z,96534.09
2018-09-11T12:10:26.307Z,96537.31
2018-09-11T12:12:55.492Z,96534.94
2018-09-11T12:15:24.612Z,96535.70
2018-09-11T12:17:53.740Z,96535.81
2018-09-11T12:20:22.901Z,96534.98
2018-09-11T12:22:52.214Z,96532.52
2018-09-11T12:25:21.643Z,96534.38
2018-09-11T12:27:50.798Z,96529.84
2018-09-11T12:30:20.107Z,96522.79
2018-09-11T12:32:49.384Z,96526.03
2018-09-11T12:35:18.492Z,96519.63
2018-09-11T12:37:47.693Z,96525.93
2018-09-11T12:40:16.972Z,96517.15
2018-09-11T12:42:46.084Z,96519.71
2018-09-11T12:45:15.222Z,96515.80
2018-09-11T12:47:44.848Z,96520.75
2018-09-11T12:50:13.568Z,96520.05
2018-09-11T12:52:42.765Z,96516.80
2018-09-11T12:55:12.008Z,96513.05
2018-09-11T12:57:47.717Z,96510.94
2018-09-11T13:00:17.127Z,96513.58
2018-09-11T13:02:46.213Z,96500.73
2018-09-11T13:05:15.349Z,96508.70
2018-09-11T13:07:44.417Z,96502.90
2018-09-11T13:10:13.613Z,96503.71
2018-09-11T13:12:43.323Z,96497.84
2018-09-11T13:15:12.720Z,96497.55
2018-09-11T13:17:41.813Z,96496.38
2018-09-11T13:20:10.955Z,96487.02
2018-09-11T13:22:40.073Z,96499.80
2018-09-11T13:25:09.282Z,96490.55
2018-09-11T13:27:38.408Z,96486.93
2018-09-11T13:30:07.524Z,96488.80
2018-09-11T13:32:36.591Z,96490.13
2018-09-11T13:35:05.697Z,96486.63
2018-09-11T13:37:34.813Z,96486.94
2018-09-11T13:40:03.980Z,96487.81
2018-09-11T13:42:33.099Z,96486.05
2018-09-11T13:45:02.270Z,96493.22
2018-09-11T13:47:31.430Z,96475.23
2018-09-11T13:50:01.318Z,96485.22
2018-09-11T13:52:30.467Z,96475.61
2018-09-11T13:54:59.657Z,96481.30
2018-09-11T13:57:29.032Z,96479.97
2018-09-11T13:59:58.200Z,96484.63
2018-09-11T14:02:27.301Z,96475.61
2018-09-11T14:04:56.385Z,96476.67
2018-09-11T14:07:25.541Z,96481.31
2018-09-11T14:09:54.637Z,96482.73
2018-09-11T14:12:23.727Z,96483.17
2018-09-11T14:14:52.821Z,96482.27
2018-09-11T14:17:21.959Z,96476.48
2018-09-11T14:19:51.145Z,96477.48
2018-09-11T14:22:20.317Z,96474.69
2018-09-11T14:24:49.483Z,96478.94
2018-09-11T14:27:18.648Z,96477.69
2018-09-11T14:29:47.820Z,96474.67
2018-09-11T14:32:16.920Z,96469.52
2018-09-11T14:34:46.225Z,96474.59
2018-09-11T14:37:15.329Z,96469.59
2018-09-11T14:39:44.596Z,96464.66
2018-09-11T14:42:13.732Z,96462.06
2018-09-11T14:44:42.926Z,96456.30
2018-09-11T14:47:12.104Z,96460.58
2018-09-11T14:49:41.214Z,96456.57
2018-09-11T14:52:10.412Z,96456.89
2018-09-11T14:54:39.662Z,96457.14
2018-09-11T14:57:08.788Z,96454.95
2018-09-11T14:59:37.884Z,96466.57
2018-09-11T15:02:06.986Z,96464.73
2018-09-11T15:04:36.095Z,96462.31
2018-09-11T15:07:05.375Z,96457.23
2018-09-11T15:09:34.469Z,96458.42
2018-09-11T15:12:03.653Z,96449.77
2018-09-11T15:14:32.760Z,96440.92
2018-09-11T15:17:01.869Z,96438.77
2018-09-11T15:19:30.989Z,96449.71
2018-09-11T15:22:00.093Z,96441.08
2018-09-11T15:24:29.201Z,96436.83
2018-09-11T15:26:58.357Z,96443.45
2018-09-11T15:29:27.527Z,96436.03
2018-09-11T15:31:56.643Z,96436.94
2018-09-11T15:34:25.749Z,96431.03
2018-09-11T15:36:54.937Z,96432.27
2018-09-11T15:39:24.017Z,96428.42
2018-09-11T15:41:53.170Z,96424.30
2018-09-11T15:44:22.238Z,96427.61
2018-09-11T15:46:51.515Z,96421.61
2018-09-11T15:49:20.595Z,96424.24
2018-09-11T15:51:49.672Z,96420.83
2018-09-11T15:54:18.768Z,96421.84
2018-09-11T15:56:47.872Z,96422.70
2018-09-11T15:59:17.240Z,96413.13
2018-09-11T16:01:46.536Z,96411.37
2018-09-11T16:04:15.657Z,96416.72
2018-09-11T16:06:44.796Z,96407.37
2018-09-11T16:09:14.022Z,96409.14
2018-09-11T16:11:43.113Z,96401.80
2018-09-11T16:14:12.288Z,96402.91
2018-09-11T16:16:41.487Z,96403.69
2018-09-11T16:19:10.700Z,96398.63
2018-09-11T16:21:39.956Z,96404.70
2018-09-11T16:24:09.076Z,96401.42
2018-09-11T16:26:38.262Z,96397.41
2018-09-11T16:29:07.356Z,96397.38
2018-09-11T16:31:36.566Z,96395.33
2018-09-11T16:34:05.684Z,96396.17
2018-09-11T16:36:34.833Z,96386.60
2018-09-11T16:39:05.434Z,96388.70
2018-09-11T16:41:34.662Z,96381.31
2018-09-11T16:44:03.925Z,96384.75
2018-09-11T16:46:33.141Z,96379.58
2018-09-11T16:49:02.290Z,96376.69
2018-09-11T16:51:31.392Z,96379.14
2018-09-11T16:54:00.503Z,96371.09
2018-09-11T16:56:29.669Z,96374.65
2018-09-11T16:58:58.777Z,96368.94
2018-09-11T17:01:27.933Z,96366.52
2018-09-11T17:03:57.069Z,96370.41
2018-09-11T17:06:27.321Z,96365.87
2018-09-11T17:08:56.413Z,96361.78
2018-09-11T17:11:25.573Z,96358.33
2018-09-11T17:13:54.803Z,96361.03
2018-09-11T17:16:23.957Z,96358.02
2018-09-11T17:18:53.057Z,96362.41
2018-09-11T17:21:22.233Z,96363.27
2018-09-11T17:23:51.429Z,96362.72
2018-09-11T17:26:20.558Z,96368.48
2018-09-11T17:28:49.661Z,96374.87
2018-09-11T17:31:18.821Z,96373.09
2018-09-11T17:33:48.283Z,96371.67
2018-09-11T17:36:17.446Z,96379.08
2018-09-11T17:38:46.590Z,96378.95
2018-09-11T17:41:15.815Z,96383.02
2018-09-11T17:43:44.920Z,96377.05
2018-09-11T17:46:14.048Z,96385.46
2018-09-11T17:48:43.334Z,96386.67
2018-09-11T17:51:12.483Z,96388.20
2018-09-11T17:53:41.621Z,96389.83
2018-09-11T17:56:10.783Z,96388.53
2018-09-11T17:58:39.847Z,96398.19
2018-09-11T18:01:08.908Z,96396.58
2018-09-11T18:03:38.131Z,96399.98
2018-09-11T18:06:07.756Z,96404.50
2018-09-11T18:08:36.883Z,96410.99
2018-09-11T18:11:09.014Z,96407.74
2018-09-11T18:13:38.175Z,96413.77
2018-09-11T18:16:07.413Z,96412.53
2018-09-11T18:18:37.489Z,96412.52
2018-09-11T18:21:06.603Z,96420.00
2018-09-11T18:23:35.773Z,96421.08
2018-09-11T18:26:04.915Z,96430.35
2018-09-11T18:28:33.983Z,96433.13
2018-09-11T18:31:03.164Z,96433.37
2018-09-11T18:33:32.269Z,96438.64
2018-09-11T18:36:01.456Z,96438.56
2018-09-11T18:38:30.606Z,96439.70
2018-09-11T18:40:59.704Z,96441.02
2018-09-11T18:43:28.849Z,96438.30
2018-09-11T18:45:58.036Z,96440.91
2018-09-11T18:48:27.141Z,96433.55
2018-09-11T18:50:56.261Z,96439.55
2018-09-11T18:53:25.374Z,96441.53
2018-09-11T18:55:54.709Z,96437.61
2018-09-11T18:58:23.793Z,96438.43
2018-09-11T19:00:53.001Z,96438.70
2018-09-11T19:03:22.106Z,96442.77
2018-09-11T19:05:51.209Z,96447.50
2018-09-11T19:08:20.318Z,96448.28
2018-09-11T19:10:49.618Z,96447.59
2018-09-11T19:13:18.946Z,96447.89
2018-09-11T19:15:48.125Z,96451.52
2018-09-11T19:18:17.281Z,96450.46
2018-09-11T19:20:47.399Z,96451.27
2018-09-11T19:23:16.553Z,96453.05
2018-09-11T19:25:45.670Z,96456.33
2018-09-11T19:28:14.801Z,96454.80
2018-09-11T19:30:43.913Z,96456.13
2018-09-11T19:33:13.105Z,96456.69
2018-09-11T19:35:42.321Z,96460.28
2018-09-11T19:38:11.437Z,96467.91
2018-09-11T19:40:40.717Z,96475.31
2018-09-11T19:43:10.006Z,96479.53
2018-09-11T19:45:39.434Z,96479.63
2018-09-11T19:48:08.609Z,96476.95
2018-09-11T19:50:38.017Z,96478.91
2018-09-11T19:53:06.999Z,96475.11
2018-09-11T19:55:36.128Z,96476.38
2018-09-11T19:58:05.266Z,96477.88
2018-09-11T20:00:34.984Z,96475.74
2018-09-11T20:03:04.200Z,96475.33
2018-09-11T20:05:33.390Z,96479.78
2018-09-11T20:08:02.565Z,96480.41
2018-09-11T20:10:31.670Z,96480.56
2018-09-11T20:13:00.805Z,96486.61
2018-09-11T20:15:29.977Z,96487.08
2018-09-11T20:17:59.149Z,96486.30
2018-09-11T20:20:28.261Z,96491.51
2018-09-11T20:22:57.363Z,96484.73
2018-09-11T20:25:26.585Z,96480.26
2018-09-11T20:27:55.692Z,96481.71
2018-09-11T20:30:24.846Z,96477.65
2018-09-11T20:32:53.997Z,96477.08
2018-09-11T20:35:23.142Z,96480.11
2018-09-11T20:37:52.910Z,96478.22
2018-09-11T20:40:22.108Z,96480.97
2018-09-11T20:42:51.238Z,96481.88
2018-09-11T20:45:20.434Z,96486.61
2018-09-11T20:47:49.561Z,96486.38
2018-09-11T20:50:18.705Z,96487.33
2018-09-11T20:52:47.831Z,96479.18
2018-09-11T20:55:16.947Z,96483.80
2018-09-11T20:57:46.113Z,96481.85
2018-09-11T21:00:15.233Z,96486.25
2018-09-11T21:02:44.442Z,96481.97
2018-09-11T21:05:13.682Z,96483.64
2018-09-11T21:07:42.841Z,96483.16
2018-09-11T21:10:12.029Z,96493.03
2018-09-11T21:12:41.133Z,96483.41
2018-09-11T21:15:10.447Z,96480.37
2018-09-11T21:17:39.687Z,96480.89
2018-09-11T21:20:08.797Z,96483.55
2018-09-11T21:22:38.317Z,96482.97
2018-09-11T21:25:14.140Z,96485.35
2018-09-11T21:27:43.269Z,96488.28
2018-09-11T21:30:12.507Z,96483.91
2018-09-11T21:32:41.658Z,96497.13
2018-09-11T21:35:10.830Z,96494.16
2018-09-11T21:37:40.015Z,96498.42
2018-09-11T21:40:09.189Z,96495.48
2018-09-11T21:42:38.352Z,96493.27
2018-09-11T21:45:07.467Z,96497.38
2018-09-11T21:47:36.644Z,96496.67
2018-09-11T21:50:05.767Z,96491.41
2018-09-11T21:52:34.863Z,96502.27
2018-09-11T21:55:04.033Z,96491.85
2018-09-11T21:57:33.760Z,96494.30
2018-09-11T22:00:03.002Z,96494.03
2018-09-11T22:02:32.205Z,96490.39
2018-09-11T22:05:01.329Z,96498.05
2018-09-11T22:07:30.516Z,96494.24
2018-09-11T22:09:59.696Z,96494.24
2018-09-11T22:12:28.808Z,96497.08
2018-09-11T22:14:57.920Z,96496.48
2018-09-11T22:17:27.032Z,96493.49
2018-09-11T22:19:56.138Z,96494.80
2018-09-11T22:22:25.304Z,96500.25
2018-09-11T22:24:54.570Z,96490.39
2018-09-11T22:27:23.770Z,96494.47
2018-09-11T22:29:52.857Z,96490.02
2018-09-11T22:32:22.017Z,96484.69
2018-09-11T22:34:51.179Z,96487.78
2018-09-11T22:37:20.293Z,96493.41
2018-09-11T22:39:49.429Z,96483.49
2018-09-11T22:42:18.522Z,96485.88
2018-09-11T22:44:47.651Z,96482.48
2018-09-11T22:47:16.769Z,96478.11
2018-09-11T22:49:45.969Z,96478.22
2018-09-11T22:52:15.155Z,96475.53
2018-09-11T22:54:44.367Z,96484.83
2018-09-11T22:57:13.457Z,96471.51
2018-09-11T22:59:42.798Z,96473.89
2018-09-11T23:02:11.953Z,96475.98
2018-09-11T23:04:41.291Z,96479.48
2018-09-11T23:07:10.433Z,96478.48
2018-09-11T23:09:39.571Z,96485.13
2018-09-11T23:12:08.664Z,96474.44
2018-09-11T23:14:37.910Z,96476.34
2018-09-11T23:17:07.073Z,96481.73
2018-09-11T23:19:36.145Z,96476.98
2018-09-11T23:22:05.403Z,96478.98
2018-09-11T23:24:34.664Z,96485.61
2018-09-11T23:27:03.788Z,96482.86
2018-09-11T23:29:32.904Z,96484.42
2018-09-11T23:32:02.022Z,96489.84
2018-09-11T23:34:31.141Z,96481.41
2018-09-11T23:37:00.244Z,96488.54
2018-09-11T23:39:29.398Z,96483.84
2018-09-11T23:41:58.610Z,96481.97
2018-09-11T23:44:27.808Z,96484.86
2018-09-11T23:46:57.333Z,96479.05
2018-09-11T23:49:26.466Z,96480.59
2018-09-11T23:51:55.566Z,96482.44
2018-09-11T23:54:24.704Z,96478.49
2018-09-11T23:56:54.025Z,96481.28
2018-09-11T23:59:23.399Z,96478.13
